sensor_id;sensor_type;location;lat;lon;timestamp;temperature;humidity
80296;DHT22;74188;42.148;24.762;2024-01-10T00:01:43;1.80;76.60
80296;DHT22;74188;42.148;24.762;2024-01-10T00:04:09;1.90;76.00
80296;DHT22;74188;42.148;24.762;2024-01-10T00:06:35;1.90;76.10
80296;DHT22;74188;42.148;24.762;2024-01-10T00:09:00;1.90;76.00
80296;DHT22;74188;42.148;24.762;2024-01-10T00:11:26;2.00;75.70
80296;DHT22;74188;42.148;24.762;2024-01-10T00:13:52;2.10;75.40
80296;DHT22;74188;42.148;24.762;2024-01-10T00:16:17;2.10;75.20
80296;DHT22;74188;42.148;24.762;2024-01-10T00:18:43;2.20;74.70
80296;DHT22;74188;42.148;24.762;2024-01-10T00:21:10;2.20;74.90
80296;DHT22;74188;42.148;24.762;2024-01-10T00:23:36;2.30;74.30
80296;DHT22;74188;42.148;24.762;2024-01-10T00:26:02;2.20;75.40
80296;DHT22;74188;42.148;24.762;2024-01-10T00:28:28;2.10;74.70
80296;DHT22;74188;42.148;24.762;2024-01-10T00:30:53;2.20;75.10
80296;DHT22;74188;42.148;24.762;2024-01-10T00:33:19;2.10;75.20
80296;DHT22;74188;42.148;24.762;2024-01-10T00:35:44;2.20;74.90
80296;DHT22;74188;42.148;24.762;2024-01-10T00:38:10;2.20;74.70
80296;DHT22;74188;42.148;24.762;2024-01-10T00:40:36;2.10;75.00
80296;DHT22;74188;42.148;24.762;2024-01-10T00:43:02;2.20;74.90
80296;DHT22;74188;42.148;24.762;2024-01-10T00:45:28;2.20;74.10
80296;DHT22;74188;42.148;24.762;2024-01-10T00:47:53;2.10;74.10
80296;DHT22;74188;42.148;24.762;2024-01-10T00:50:19;2.10;74.50
80296;DHT22;74188;42.148;24.762;2024-01-10T00:52:45;2.10;75.00
80296;DHT22;74188;42.148;24.762;2024-01-10T00:55:11;2.00;74.30
80296;DHT22;74188;42.148;24.762;2024-01-10T00:57:37;1.90;74.60
80296;DHT22;74188;42.148;24.762;2024-01-10T01:00:06;1.90;74.60
80296;DHT22;74188;42.148;24.762;2024-01-10T01:02:32;2.00;74.40
80296;DHT22;74188;42.148;24.762;2024-01-10T01:04:57;2.00;73.50
80296;DHT22;74188;42.148;24.762;2024-01-10T01:07:23;1.90;73.80
80296;DHT22;74188;42.148;24.762;2024-01-10T01:09:49;2.00;74.20
80296;DHT22;74188;42.148;24.762;2024-01-10T01:12:14;2.10;73.30
80296;DHT22;74188;42.148;24.762;2024-01-10T01:14:40;2.10;73.30
80296;DHT22;74188;42.148;24.762;2024-01-10T01:17:06;2.20;73.20
80296;DHT22;74188;42.148;24.762;2024-01-10T01:19:31;2.20;73.10
80296;DHT22;74188;42.148;24.762;2024-01-10T01:21:57;2.10;73.10
80296;DHT22;74188;42.148;24.762;2024-01-10T01:24:23;2.10;73.50
80296;DHT22;74188;42.148;24.762;2024-01-10T01:26:49;2.10;73.40
80296;DHT22;74188;42.148;24.762;2024-01-10T01:29:15;2.10;73.40
80296;DHT22;74188;42.148;24.762;2024-01-10T01:31:40;2.20;73.00
80296;DHT22;74188;42.148;24.762;2024-01-10T01:34:07;2.30;72.80
80296;DHT22;74188;42.148;24.762;2024-01-10T01:36:32;2.30;72.90
80296;DHT22;74188;42.148;24.762;2024-01-10T01:38:58;2.30;72.70
80296;DHT22;74188;42.148;24.762;2024-01-10T01:41:23;2.30;72.80
80296;DHT22;74188;42.148;24.762;2024-01-10T01:43:49;2.30;72.90
80296;DHT22;74188;42.148;24.762;2024-01-10T01:46:15;2.30;73.20
80296;DHT22;74188;42.148;24.762;2024-01-10T01:48:41;2.30;73.10
80296;DHT22;74188;42.148;24.762;2024-01-10T01:51:07;2.50;72.30
80296;DHT22;74188;42.148;24.762;2024-01-10T01:53:35;2.50;72.10
80296;DHT22;74188;42.148;24.762;2024-01-10T01:56:05;2.50;72.00
80296;DHT22;74188;42.148;24.762;2024-01-10T01:58:31;2.60;71.50
80296;DHT22;74188;42.148;24.762;2024-01-10T02:01:02;2.40;71.30
80296;DHT22;74188;42.148;24.762;2024-01-10T02:03:30;2.40;71.70
80296;DHT22;74188;42.148;24.762;2024-01-10T02:05:57;2.30;71.40
80296;DHT22;74188;42.148;24.762;2024-01-10T02:08:25;2.20;72.10
80296;DHT22;74188;42.148;24.762;2024-01-10T02:10:54;2.30;72.20
80296;DHT22;74188;42.148;24.762;2024-01-10T02:13:20;2.20;72.40
80296;DHT22;74188;42.148;24.762;2024-01-10T02:15:46;2.20;72.60
80296;DHT22;74188;42.148;24.762;2024-01-10T02:18:12;2.20;72.50
80296;DHT22;74188;42.148;24.762;2024-01-10T02:20:40;2.20;72.40
80296;DHT22;74188;42.148;24.762;2024-01-10T02:23:08;2.30;71.30
80296;DHT22;74188;42.148;24.762;2024-01-10T02:25:34;2.40;70.80
80296;DHT22;74188;42.148;24.762;2024-01-10T02:28:00;2.30;70.80
80296;DHT22;74188;42.148;24.762;2024-01-10T02:30:26;2.10;71.60
80296;DHT22;74188;42.148;24.762;2024-01-10T02:32:52;2.10;72.00
80296;DHT22;74188;42.148;24.762;2024-01-10T02:35:20;2.10;72.90
80296;DHT22;74188;42.148;24.762;2024-01-10T02:37:46;2.10;71.10
80296;DHT22;74188;42.148;24.762;2024-01-10T02:40:12;2.10;71.00
80296;DHT22;74188;42.148;24.762;2024-01-10T02:42:38;2.00;71.60
80296;DHT22;74188;42.148;24.762;2024-01-10T02:45:04;2.00;71.20
80296;DHT22;74188;42.148;24.762;2024-01-10T02:47:30;2.00;71.60
80296;DHT22;74188;42.148;24.762;2024-01-10T02:49:56;2.10;71.40
80296;DHT22;74188;42.148;24.762;2024-01-10T02:52:22;2.00;71.50
80296;DHT22;74188;42.148;24.762;2024-01-10T02:54:47;2.00;70.90
80296;DHT22;74188;42.148;24.762;2024-01-10T02:57:13;2.00;71.50
80296;DHT22;74188;42.148;24.762;2024-01-10T02:59:39;2.00;71.80
80296;DHT22;74188;42.148;24.762;2024-01-10T03:02:04;2.00;72.10
80296;DHT22;74188;42.148;24.762;2024-01-10T03:04:30;2.10;72.20
80296;DHT22;74188;42.148;24.762;2024-01-10T03:06:56;2.10;71.80
80296;DHT22;74188;42.148;24.762;2024-01-10T03:09:23;2.20;71.40
80296;DHT22;74188;42.148;24.762;2024-01-10T03:11:48;2.30;72.20
80296;DHT22;74188;42.148;24.762;2024-01-10T03:14:14;2.30;71.40
80296;DHT22;74188;42.148;24.762;2024-01-10T03:16:40;2.30;69.70
80296;DHT22;74188;42.148;24.762;2024-01-10T03:19:06;2.20;70.40
80296;DHT22;74188;42.148;24.762;2024-01-10T03:21:32;2.10;70.60
80296;DHT22;74188;42.148;24.762;2024-01-10T03:23:58;2.10;71.30
80296;DHT22;74188;42.148;24.762;2024-01-10T03:26:25;2.10;71.50
80296;DHT22;74188;42.148;24.762;2024-01-10T03:28:51;2.20;71.00
80296;DHT22;74188;42.148;24.762;2024-01-10T03:31:17;2.20;71.10
80296;DHT22;74188;42.148;24.762;2024-01-10T03:33:43;2.30;70.50
80296;DHT22;74188;42.148;24.762;2024-01-10T03:36:11;2.30;69.80
80296;DHT22;74188;42.148;24.762;2024-01-10T03:38:37;2.30;70.00
80296;DHT22;74188;42.148;24.762;2024-01-10T03:41:03;2.30;69.70
80296;DHT22;74188;42.148;24.762;2024-01-10T03:43:29;2.40;69.30
80296;DHT22;74188;42.148;24.762;2024-01-10T03:45:54;2.30;69.30
80296;DHT22;74188;42.148;24.762;2024-01-10T03:48:20;2.20;69.30
80296;DHT22;74188;42.148;24.762;2024-01-10T03:50:46;2.30;69.40
80296;DHT22;74188;42.148;24.762;2024-01-10T03:53:11;2.30;69.00
80296;DHT22;74188;42.148;24.762;2024-01-10T03:55:37;2.20;68.70
80296;DHT22;74188;42.148;24.762;2024-01-10T03:58:04;2.20;69.30
80296;DHT22;74188;42.148;24.762;2024-01-10T04:00:30;2.10;69.40
80296;DHT22;74188;42.148;24.762;2024-01-10T04:02:56;2.00;69.50
80296;DHT22;74188;42.148;24.762;2024-01-10T04:05:21;2.10;69.70
80296;DHT22;74188;42.148;24.762;2024-01-10T04:07:49;2.10;69.80
80296;DHT22;74188;42.148;24.762;2024-01-10T04:10:15;2.20;70.00
80296;DHT22;74188;42.148;24.762;2024-01-10T04:12:41;2.20;69.80
80296;DHT22;74188;42.148;24.762;2024-01-10T04:15:08;2.30;69.70
80296;DHT22;74188;42.148;24.762;2024-01-10T04:17:33;2.30;69.50
80296;DHT22;74188;42.148;24.762;2024-01-10T04:19:59;2.40;69.20
80296;DHT22;74188;42.148;24.762;2024-01-10T04:22:25;2.40;69.30
80296;DHT22;74188;42.148;24.762;2024-01-10T04:24:51;2.40;69.00
80296;DHT22;74188;42.148;24.762;2024-01-10T04:27:17;2.40;68.70
80296;DHT22;74188;42.148;24.762;2024-01-10T04:29:44;2.50;68.10
80296;DHT22;74188;42.148;24.762;2024-01-10T04:32:10;2.50;68.30
80296;DHT22;74188;42.148;24.762;2024-01-10T04:34:35;2.40;68.40
80296;DHT22;74188;42.148;24.762;2024-01-10T04:37:01;2.30;68.60
80296;DHT22;74188;42.148;24.762;2024-01-10T04:39:27;2.30;68.30
80296;DHT22;74188;42.148;24.762;2024-01-10T04:41:53;2.30;68.70
80296;DHT22;74188;42.148;24.762;2024-01-10T04:44:19;2.30;69.20
80296;DHT22;74188;42.148;24.762;2024-01-10T04:46:44;2.20;69.20
80296;DHT22;74188;42.148;24.762;2024-01-10T04:49:10;2.30;68.90
80296;DHT22;74188;42.148;24.762;2024-01-10T04:51:36;2.40;68.70
80296;DHT22;74188;42.148;24.762;2024-01-10T04:54:01;2.40;68.00
80296;DHT22;74188;42.148;24.762;2024-01-10T04:56:27;2.30;68.30
80296;DHT22;74188;42.148;24.762;2024-01-10T04:58:53;2.30;68.20
80296;DHT22;74188;42.148;24.762;2024-01-10T05:01:18;2.40;68.30
80296;DHT22;74188;42.148;24.762;2024-01-10T05:03:44;2.40;68.20
80296;DHT22;74188;42.148;24.762;2024-01-10T05:06:10;2.40;68.20
80296;DHT22;74188;42.148;24.762;2024-01-10T05:08:36;2.50;68.10
80296;DHT22;74188;42.148;24.762;2024-01-10T05:11:02;2.50;68.00
80296;DHT22;74188;42.148;24.762;2024-01-10T05:13:28;2.50;68.10
80296;DHT22;74188;42.148;24.762;2024-01-10T05:15:54;2.60;68.10
80296;DHT22;74188;42.148;24.762;2024-01-10T05:18:21;2.60;67.90
80296;DHT22;74188;42.148;24.762;2024-01-10T05:20:47;2.60;67.90
80296;DHT22;74188;42.148;24.762;2024-01-10T05:23:13;2.60;67.70
80296;DHT22;74188;42.148;24.762;2024-01-10T05:25:39;2.60;67.60
80296;DHT22;74188;42.148;24.762;2024-01-10T05:28:05;2.60;67.70
80296;DHT22;74188;42.148;24.762;2024-01-10T05:30:31;2.60;67.60
80296;DHT22;74188;42.148;24.762;2024-01-10T05:32:57;2.70;67.60
80296;DHT22;74188;42.148;24.762;2024-01-10T05:35:24;2.60;67.60
80296;DHT22;74188;42.148;24.762;2024-01-10T05:37:53;2.70;67.40
80296;DHT22;74188;42.148;24.762;2024-01-10T05:40:20;2.60;67.30
80296;DHT22;74188;42.148;24.762;2024-01-10T05:42:45;2.60;67.40
80296;DHT22;74188;42.148;24.762;2024-01-10T05:45:11;2.60;67.50
80296;DHT22;74188;42.148;24.762;2024-01-10T05:47:37;2.60;67.50
80296;DHT22;74188;42.148;24.762;2024-01-10T05:50:03;2.50;67.30
80296;DHT22;74188;42.148;24.762;2024-01-10T05:52:31;2.50;67.20
80296;DHT22;74188;42.148;24.762;2024-01-10T05:54:59;2.50;67.30
80296;DHT22;74188;42.148;24.762;2024-01-10T05:57:27;2.50;67.40
80296;DHT22;74188;42.148;24.762;2024-01-10T05:59:53;2.40;67.50
80296;DHT22;74188;42.148;24.762;2024-01-10T06:02:22;2.40;67.60
80296;DHT22;74188;42.148;24.762;2024-01-10T06:04:49;2.40;67.50
80296;DHT22;74188;42.148;24.762;2024-01-10T06:07:15;2.40;67.00
80296;DHT22;74188;42.148;24.762;2024-01-10T06:09:41;2.30;66.30
80296;DHT22;74188;42.148;24.762;2024-01-10T06:12:09;2.30;65.00
80296;DHT22;74188;42.148;24.762;2024-01-10T06:14:35;2.30;64.90
80296;DHT22;74188;42.148;24.762;2024-01-10T06:17:01;2.40;64.70
80296;DHT22;74188;42.148;24.762;2024-01-10T06:19:29;2.40;64.60
80296;DHT22;74188;42.148;24.762;2024-01-10T06:21:56;2.40;64.00
80296;DHT22;74188;42.148;24.762;2024-01-10T06:24:22;2.40;63.70
80296;DHT22;74188;42.148;24.762;2024-01-10T06:26:48;2.50;63.80
80296;DHT22;74188;42.148;24.762;2024-01-10T06:29:15;2.50;64.20
80296;DHT22;74188;42.148;24.762;2024-01-10T06:31:41;2.50;64.90
80296;DHT22;74188;42.148;24.762;2024-01-10T06:34:07;2.50;65.50
80296;DHT22;74188;42.148;24.762;2024-01-10T06:36:33;2.50;66.00
80296;DHT22;74188;42.148;24.762;2024-01-10T06:38:58;2.50;66.50
80296;DHT22;74188;42.148;24.762;2024-01-10T06:41:24;2.50;67.00
80296;DHT22;74188;42.148;24.762;2024-01-10T06:43:51;2.60;67.30
80296;DHT22;74188;42.148;24.762;2024-01-10T06:46:17;2.60;67.50
80296;DHT22;74188;42.148;24.762;2024-01-10T06:48:43;2.60;68.00
80296;DHT22;74188;42.148;24.762;2024-01-10T06:51:15;2.60;68.10
80296;DHT22;74188;42.148;24.762;2024-01-10T06:53:41;2.70;68.20
80296;DHT22;74188;42.148;24.762;2024-01-10T06:56:07;2.70;68.20
80296;DHT22;74188;42.148;24.762;2024-01-10T06:58:35;2.70;68.30
80296;DHT22;74188;42.148;24.762;2024-01-10T07:01:00;2.70;68.20
80296;DHT22;74188;42.148;24.762;2024-01-10T07:03:27;2.70;68.40
80296;DHT22;74188;42.148;24.762;2024-01-10T07:05:52;2.70;68.90
80296;DHT22;74188;42.148;24.762;2024-01-10T07:08:18;2.70;69.10
80296;DHT22;74188;42.148;24.762;2024-01-10T07:10:44;2.70;69.30
80296;DHT22;74188;42.148;24.762;2024-01-10T07:13:10;2.70;69.30
80296;DHT22;74188;42.148;24.762;2024-01-10T07:15:37;2.80;69.10
80296;DHT22;74188;42.148;24.762;2024-01-10T07:18:04;2.80;68.80
80296;DHT22;74188;42.148;24.762;2024-01-10T07:20:30;2.90;70.00
80296;DHT22;74188;42.148;24.762;2024-01-10T07:22:55;3.00;68.50
80296;DHT22;74188;42.148;24.762;2024-01-10T07:25:21;3.10;68.40
80296;DHT22;74188;42.148;24.762;2024-01-10T07:27:51;3.20;68.40
80296;DHT22;74188;42.148;24.762;2024-01-10T07:30:17;3.30;67.60
80296;DHT22;74188;42.148;24.762;2024-01-10T07:32:43;3.40;67.20
80296;DHT22;74188;42.148;24.762;2024-01-10T07:35:09;3.40;66.60
80296;DHT22;74188;42.148;24.762;2024-01-10T07:37:37;3.60;66.50
80296;DHT22;74188;42.148;24.762;2024-01-10T07:40:03;3.70;66.10
80296;DHT22;74188;42.148;24.762;2024-01-10T07:42:34;3.80;65.10
80296;DHT22;74188;42.148;24.762;2024-01-10T07:45:00;3.90;65.80
80296;DHT22;74188;42.148;24.762;2024-01-10T07:47:30;4.00;64.90
80296;DHT22;74188;42.148;24.762;2024-01-10T07:49:57;4.10;64.30
80296;DHT22;74188;42.148;24.762;2024-01-10T07:52:23;4.30;63.60
80296;DHT22;74188;42.148;24.762;2024-01-10T07:54:48;4.50;63.20
80296;DHT22;74188;42.148;24.762;2024-01-10T07:57:14;4.70;62.60
80296;DHT22;74188;42.148;24.762;2024-01-10T07:59:40;4.90;61.70
80296;DHT22;74188;42.148;24.762;2024-01-10T08:02:06;5.10;60.90
80296;DHT22;74188;42.148;24.762;2024-01-10T08:04:32;5.20;59.60
80296;DHT22;74188;42.148;24.762;2024-01-10T08:06:58;5.30;59.40
80296;DHT22;74188;42.148;24.762;2024-01-10T08:09:24;5.30;59.40
80296;DHT22;74188;42.148;24.762;2024-01-10T08:11:50;5.30;59.30
80296;DHT22;74188;42.148;24.762;2024-01-10T08:14:16;5.30;59.40
80296;DHT22;74188;42.148;24.762;2024-01-10T08:16:42;5.30;58.80
80296;DHT22;74188;42.148;24.762;2024-01-10T08:19:08;5.30;58.60
80296;DHT22;74188;42.148;24.762;2024-01-10T08:21:34;5.50;58.40
80296;DHT22;74188;42.148;24.762;2024-01-10T08:24:01;5.70;57.90
80296;DHT22;74188;42.148;24.762;2024-01-10T08:26:27;5.80;57.40
80296;DHT22;74188;42.148;24.762;2024-01-10T08:28:53;6.00;56.70
80296;DHT22;74188;42.148;24.762;2024-01-10T08:31:19;6.30;55.90
80296;DHT22;74188;42.148;24.762;2024-01-10T08:33:45;6.60;54.60
80296;DHT22;74188;42.148;24.762;2024-01-10T08:36:12;6.80;53.40
80296;DHT22;74188;42.148;24.762;2024-01-10T08:38:38;7.20;52.70
80296;DHT22;74188;42.148;24.762;2024-01-10T08:41:04;7.50;51.90
80296;DHT22;74188;42.148;24.762;2024-01-10T08:43:30;8.00;50.90
80296;DHT22;74188;42.148;24.762;2024-01-10T08:45:56;8.30;50.10
80296;DHT22;74188;42.148;24.762;2024-01-10T08:48:23;8.90;48.60
80296;DHT22;74188;42.148;24.762;2024-01-10T08:50:50;9.30;46.30
80296;DHT22;74188;42.148;24.762;2024-01-10T08:53:15;9.50;45.80
80296;DHT22;74188;42.148;24.762;2024-01-10T08:55:41;9.70;44.70
80296;DHT22;74188;42.148;24.762;2024-01-10T08:58:07;10.00;44.00
80296;DHT22;74188;42.148;24.762;2024-01-10T09:00:33;10.20;43.00
80296;DHT22;74188;42.148;24.762;2024-01-10T09:03:00;10.50;42.20
80296;DHT22;74188;42.148;24.762;2024-01-10T09:05:26;10.70;41.50
80296;DHT22;74188;42.148;24.762;2024-01-10T09:07:52;10.90;41.10
80296;DHT22;74188;42.148;24.762;2024-01-10T09:10:19;10.90;39.90
80296;DHT22;74188;42.148;24.762;2024-01-10T09:12:47;10.80;40.40
80296;DHT22;74188;42.148;24.762;2024-01-10T09:15:13;10.60;40.20
80296;DHT22;74188;42.148;24.762;2024-01-10T09:17:43;10.20;40.30
80296;DHT22;74188;42.148;24.762;2024-01-10T09:20:10;9.90;40.60
80296;DHT22;74188;42.148;24.762;2024-01-10T09:22:36;9.50;41.60
80296;DHT22;74188;42.148;24.762;2024-01-10T09:25:04;9.30;41.60
80296;DHT22;74188;42.148;24.762;2024-01-10T09:27:31;9.00;43.70
80296;DHT22;74188;42.148;24.762;2024-01-10T09:29:57;9.00;43.40
80296;DHT22;74188;42.148;24.762;2024-01-10T09:32:22;9.10;43.90
80296;DHT22;74188;42.148;24.762;2024-01-10T09:34:48;8.90;42.40
80296;DHT22;74188;42.148;24.762;2024-01-10T09:37:14;8.80;43.00
80296;DHT22;74188;42.148;24.762;2024-01-10T09:39:40;9.10;43.30
80296;DHT22;74188;42.148;24.762;2024-01-10T09:42:05;9.80;43.30
80296;DHT22;74188;42.148;24.762;2024-01-10T09:44:32;10.60;42.10
80296;DHT22;74188;42.148;24.762;2024-01-10T09:46:58;10.60;41.50
80296;DHT22;74188;42.148;24.762;2024-01-10T09:49:24;11.50;40.70
80296;DHT22;74188;42.148;24.762;2024-01-10T09:51:56;12.70;38.50
80296;DHT22;74188;42.148;24.762;2024-01-10T09:54:24;13.70;35.80
80296;DHT22;74188;42.148;24.762;2024-01-10T09:56:51;14.60;33.70
80296;DHT22;74188;42.148;24.762;2024-01-10T09:59:16;15.60;32.20
80296;DHT22;74188;42.148;24.762;2024-01-10T10:01:43;16.40;30.40
80296;DHT22;74188;42.148;24.762;2024-01-10T10:04:11;17.30;29.00
80296;DHT22;74188;42.148;24.762;2024-01-10T10:06:37;17.80;27.10
80296;DHT22;74188;42.148;24.762;2024-01-10T10:09:03;17.80;26.20
80296;DHT22;74188;42.148;24.762;2024-01-10T10:11:30;17.10;27.50
80296;DHT22;74188;42.148;24.762;2024-01-10T10:13:55;16.90;28.20
80296;DHT22;74188;42.148;24.762;2024-01-10T10:16:25;16.60;28.10
80296;DHT22;74188;42.148;24.762;2024-01-10T10:18:53;16.40;28.60
80296;DHT22;74188;42.148;24.762;2024-01-10T10:21:25;15.30;29.40
80296;DHT22;74188;42.148;24.762;2024-01-10T10:24:00;14.30;31.10
80296;DHT22;74188;42.148;24.762;2024-01-10T10:26:32;13.60;31.60
80296;DHT22;74188;42.148;24.762;2024-01-10T10:28:58;12.80;32.90
80296;DHT22;74188;42.148;24.762;2024-01-10T10:31:24;12.50;34.90
80296;DHT22;74188;42.148;24.762;2024-01-10T10:33:50;12.90;34.90
80296;DHT22;74188;42.148;24.762;2024-01-10T10:36:17;14.10;32.50
80296;DHT22;74188;42.148;24.762;2024-01-10T10:38:42;14.90;30.40
80296;DHT22;74188;42.148;24.762;2024-01-10T10:41:08;15.90;29.50
80296;DHT22;74188;42.148;24.762;2024-01-10T10:43:38;17.30;28.10
80296;DHT22;74188;42.148;24.762;2024-01-10T10:46:10;18.80;26.10
80296;DHT22;74188;42.148;24.762;2024-01-10T10:48:38;19.80;24.10
80296;DHT22;74188;42.148;24.762;2024-01-10T10:51:23;20.40;24.30
80296;DHT22;74188;42.148;24.762;2024-01-10T10:53:51;21.00;22.80
80296;DHT22;74188;42.148;24.762;2024-01-10T10:56:18;21.70;21.60
80296;DHT22;74188;42.148;24.762;2024-01-10T10:58:44;22.10;21.00
80296;DHT22;74188;42.148;24.762;2024-01-10T11:01:12;22.10;20.40
80296;DHT22;74188;42.148;24.762;2024-01-10T11:03:39;21.60;20.40
80296;DHT22;74188;42.148;24.762;2024-01-10T11:06:06;21.50;21.20
80296;DHT22;74188;42.148;24.762;2024-01-10T11:08:42;21.70;20.60
80296;DHT22;74188;42.148;24.762;2024-01-10T11:11:49;21.80;20.50
80296;DHT22;74188;42.148;24.762;2024-01-10T11:14:21;22.20;20.00
80296;DHT22;74188;42.148;24.762;2024-01-10T11:19:58;22.50;18.60
80296;DHT22;74188;42.148;24.762;2024-01-10T11:22:52;22.40;18.70
80296;DHT22;74188;42.148;24.762;2024-01-10T11:25:21;22.90;19.00
80296;DHT22;74188;42.148;24.762;2024-01-10T11:27:54;23.70;18.20
80296;DHT22;74188;42.148;24.762;2024-01-10T11:30:37;24.40;17.20
80296;DHT22;74188;42.148;24.762;2024-01-10T11:33:24;24.80;16.80
80296;DHT22;74188;42.148;24.762;2024-01-10T11:39:00;23.50;18.00
80296;DHT22;74188;42.148;24.762;2024-01-10T11:41:32;23.70;17.70
80296;DHT22;74188;42.148;24.762;2024-01-10T11:44:27;23.80;17.60
80296;DHT22;74188;42.148;24.762;2024-01-10T11:46:54;23.90;17.20
80296;DHT22;74188;42.148;24.762;2024-01-10T11:49:21;24.20;17.50
80296;DHT22;74188;42.148;24.762;2024-01-10T11:51:49;24.80;17.30
80296;DHT22;74188;42.148;24.762;2024-01-10T11:57:00;27.00;15.50
80296;DHT22;74188;42.148;24.762;2024-01-10T11:59:26;28.00;14.60
80296;DHT22;74188;42.148;24.762;2024-01-10T12:01:52;28.50;13.70
80296;DHT22;74188;42.148;24.762;2024-01-10T12:04:19;28.80;13.80
80296;DHT22;74188;42.148;24.762;2024-01-10T12:06:45;28.90;13.60
80296;DHT22;74188;42.148;24.762;2024-01-10T12:09:12;29.00;13.40
80296;DHT22;74188;42.148;24.762;2024-01-10T12:11:39;28.60;13.60
80296;DHT22;74188;42.148;24.762;2024-01-10T12:14:08;28.00;14.00
80296;DHT22;74188;42.148;24.762;2024-01-10T12:16:33;27.90;13.80
80296;DHT22;74188;42.148;24.762;2024-01-10T12:18:59;27.00;14.30
80296;DHT22;74188;42.148;24.762;2024-01-10T12:21:25;26.50;14.60
80296;DHT22;74188;42.148;24.762;2024-01-10T12:23:50;25.60;14.90
80296;DHT22;74188;42.148;24.762;2024-01-10T12:26:18;24.80;15.40
80296;DHT22;74188;42.148;24.762;2024-01-10T12:28:58;23.60;16.70
80296;DHT22;74188;42.148;24.762;2024-01-10T12:31:27;23.50;17.30
80296;DHT22;74188;42.148;24.762;2024-01-10T12:33:54;23.90;17.00
80296;DHT22;74188;42.148;24.762;2024-01-10T12:36:20;24.50;16.60
80296;DHT22;74188;42.148;24.762;2024-01-10T12:38:46;24.40;15.60
80296;DHT22;74188;42.148;24.762;2024-01-10T12:41:14;24.00;16.30
80296;DHT22;74188;42.148;24.762;2024-01-10T12:43:40;23.70;17.80
80296;DHT22;74188;42.148;24.762;2024-01-10T12:46:10;23.60;17.20
80296;DHT22;74188;42.148;24.762;2024-01-10T12:48:37;24.70;16.50
80296;DHT22;74188;42.148;24.762;2024-01-10T12:51:04;25.00;15.90
80296;DHT22;74188;42.148;24.762;2024-01-10T12:53:41;25.50;15.70
80296;DHT22;74188;42.148;24.762;2024-01-10T12:56:09;25.80;15.50
80296;DHT22;74188;42.148;24.762;2024-01-10T12:58:40;25.80;15.50
80296;DHT22;74188;42.148;24.762;2024-01-10T13:01:09;25.70;15.60
80296;DHT22;74188;42.148;24.762;2024-01-10T13:03:36;25.10;15.60
80296;DHT22;74188;42.148;24.762;2024-01-10T13:06:01;24.80;16.00
80296;DHT22;74188;42.148;24.762;2024-01-10T13:08:30;24.20;16.50
80296;DHT22;74188;42.148;24.762;2024-01-10T13:10:57;23.20;17.60
80296;DHT22;74188;42.148;24.762;2024-01-10T13:13:23;22.40;18.70
80296;DHT22;74188;42.148;24.762;2024-01-10T13:15:48;21.40;19.60
80296;DHT22;74188;42.148;24.762;2024-01-10T13:18:14;20.40;20.70
80296;DHT22;74188;42.148;24.762;2024-01-10T13:20:41;19.30;22.10
80296;DHT22;74188;42.148;24.762;2024-01-10T13:23:07;18.20;23.60
80296;DHT22;74188;42.148;24.762;2024-01-10T13:25:34;17.40;25.60
80296;DHT22;74188;42.148;24.762;2024-01-10T13:27:59;16.50;27.00
80296;DHT22;74188;42.148;24.762;2024-01-10T13:30:26;15.90;27.90
80296;DHT22;74188;42.148;24.762;2024-01-10T13:32:52;15.50;28.50
80296;DHT22;74188;42.148;24.762;2024-01-10T13:35:17;15.00;29.20
80296;DHT22;74188;42.148;24.762;2024-01-10T13:37:43;14.80;29.90
80296;DHT22;74188;42.148;24.762;2024-01-10T13:40:09;14.80;30.00
80296;DHT22;74188;42.148;24.762;2024-01-10T13:42:38;15.20;29.40
80296;DHT22;74188;42.148;24.762;2024-01-10T13:45:08;15.50;28.80
80296;DHT22;74188;42.148;24.762;2024-01-10T13:47:36;14.90;29.70
80296;DHT22;74188;42.148;24.762;2024-01-10T13:50:01;14.60;30.00
80296;DHT22;74188;42.148;24.762;2024-01-10T13:52:29;14.20;31.10
80296;DHT22;74188;42.148;24.762;2024-01-10T13:54:55;14.20;31.70
80296;DHT22;74188;42.148;24.762;2024-01-10T13:57:21;14.60;30.70
80296;DHT22;74188;42.148;24.762;2024-01-10T13:59:47;14.80;30.00
80296;DHT22;74188;42.148;24.762;2024-01-10T14:02:13;15.40;29.30
80296;DHT22;74188;42.148;24.762;2024-01-10T14:04:39;16.10;28.10
80296;DHT22;74188;42.148;24.762;2024-01-10T14:07:05;16.60;27.30
80296;DHT22;74188;42.148;24.762;2024-01-10T14:09:31;16.80;26.80
80296;DHT22;74188;42.148;24.762;2024-01-10T14:11:57;16.50;27.00
80296;DHT22;74188;42.148;24.762;2024-01-10T14:14:23;15.80;27.80
80296;DHT22;74188;42.148;24.762;2024-01-10T14:16:49;15.10;29.10
80296;DHT22;74188;42.148;24.762;2024-01-10T14:19:15;14.60;29.90
80296;DHT22;74188;42.148;24.762;2024-01-10T14:21:43;14.10;31.00
80296;DHT22;74188;42.148;24.762;2024-01-10T14:24:08;13.80;30.90
80296;DHT22;74188;42.148;24.762;2024-01-10T14:26:34;13.70;31.80
80296;DHT22;74188;42.148;24.762;2024-01-10T14:29:00;13.80;31.50
80296;DHT22;74188;42.148;24.762;2024-01-10T14:31:26;14.00;31.50
80296;DHT22;74188;42.148;24.762;2024-01-10T14:33:52;14.00;31.10
80296;DHT22;74188;42.148;24.762;2024-01-10T14:36:18;13.70;31.40
80296;DHT22;74188;42.148;24.762;2024-01-10T14:38:44;13.30;33.60
80296;DHT22;74188;42.148;24.762;2024-01-10T14:41:10;12.80;33.50
80296;DHT22;74188;42.148;24.762;2024-01-10T14:43:36;12.30;34.70
80296;DHT22;74188;42.148;24.762;2024-01-10T14:46:03;11.90;35.80
80296;DHT22;74188;42.148;24.762;2024-01-10T14:48:31;11.50;36.80
80296;DHT22;74188;42.148;24.762;2024-01-10T14:50:57;11.10;37.80
80296;DHT22;74188;42.148;24.762;2024-01-10T14:53:22;10.80;38.80
80296;DHT22;74188;42.148;24.762;2024-01-10T14:55:49;10.60;39.60
80296;DHT22;74188;42.148;24.762;2024-01-10T14:58:14;10.30;40.70
80296;DHT22;74188;42.148;24.762;2024-01-10T15:00:40;10.00;41.80
80296;DHT22;74188;42.148;24.762;2024-01-10T15:03:08;9.80;41.90
80296;DHT22;74188;42.148;24.762;2024-01-10T15:05:34;9.60;42.30
80296;DHT22;74188;42.148;24.762;2024-01-10T15:08:00;9.30;42.80
80296;DHT22;74188;42.148;24.762;2024-01-10T15:10:27;9.10;43.70
80296;DHT22;74188;42.148;24.762;2024-01-10T15:12:53;8.90;44.50
80296;DHT22;74188;42.148;24.762;2024-01-10T15:15:19;8.80;45.60
80296;DHT22;74188;42.148;24.762;2024-01-10T15:17:44;8.80;44.80
80296;DHT22;74188;42.148;24.762;2024-01-10T15:20:10;8.60;45.30
80296;DHT22;74188;42.148;24.762;2024-01-10T15:22:36;8.40;45.90
80296;DHT22;74188;42.148;24.762;2024-01-10T15:25:05;8.20;46.50
80296;DHT22;74188;42.148;24.762;2024-01-10T15:27:31;8.00;47.10
80296;DHT22;74188;42.148;24.762;2024-01-10T15:29:58;7.80;48.00
80296;DHT22;74188;42.148;24.762;2024-01-10T15:32:23;7.70;49.30